sensor_id;sensor_type;location;lat;lon;timestamp;P1;durP1;ratioP1;P2;durP2;ratioP2
23642;SDS011;11998;55.788;37.572;2023-04-24T00:00:12;12.33;;;5.63;;
23642;SDS011;11998;55.788;37.572;2023-04-24T00:01:14;13.93;;;5.73;;
23642;SDS011;11998;55.788;37.572;2023-04-24T00:02:15;10.03;;;6.10;;
23642;SDS011;11998;55.788;37.572;2023-04-24T00:03:15;11.00;;;6.03;;
23642;SDS011;11998;55.788;37.572;2023-04-24T00:04:16;9.13;;;5.45;;
23642;SDS011;11998;55.788;37.572;2023-04-24T00:05:17;13.07;;;6.47;;
23642;SDS011;11998;55.788;37.572;2023-04-24T00:06:17;10.87;;;6.13;;
23642;SDS011;11998;55.788;37.572;2023-04-24T00:07:18;14.70;;;6.20;;
23642;SDS011;11998;55.788;37.572;2023-04-24T00:08:20;17.67;;;6.50;;
23642;SDS011;11998;55.788;37.572;2023-04-24T00:09:21;11.35;;;5.75;;
23642;SDS011;11998;55.788;37.572;2023-04-24T00:10:21;11.82;;;5.95;;
23642;SDS011;11998;55.788;37.572;2023-04-24T00:11:22;13.40;;;5.53;;
23642;SDS011;11998;55.788;37.572;2023-04-24T00:12:22;11.37;;;5.97;;
23642;SDS011;11998;55.788;37.572;2023-04-24T00:13:26;10.17;;;6.00;;
23642;SDS011;11998;55.788;37.572;2023-04-24T00:14:28;13.37;;;6.63;;
23642;SDS011;11998;55.788;37.572;2023-04-24T00:15:31;9.37;;;5.67;;
23642;SDS011;11998;55.788;37.572;2023-04-24T00:16:31;13.03;;;6.63;;
23642;SDS011;11998;55.788;37.572;2023-04-24T00:17:32;12.13;;;5.97;;
23642;SDS011;11998;55.788;37.572;2023-04-24T00:18:32;11.63;;;6.55;;
23642;SDS011;11998;55.788;37.572;2023-04-24T00:19:33;11.52;;;6.28;;
23642;SDS011;11998;55.788;37.572;2023-04-24T00:20:35;14.27;;;6.47;;
23642;SDS011;11998;55.788;37.572;2023-04-24T00:21:36;11.13;;;6.67;;
23642;SDS011;11998;55.788;37.572;2023-04-24T00:22:37;14.10;;;6.47;;
23642;SDS011;11998;55.788;37.572;2023-04-24T00:23:38;13.90;;;6.63;;
23642;SDS011;11998;55.788;37.572;2023-04-24T00:24:39;19.67;;;6.63;;
23642;SDS011;11998;55.788;37.572;2023-04-24T00:25:39;13.27;;;6.70;;
23642;SDS011;11998;55.788;37.572;2023-04-24T00:26:40;11.33;;;6.93;;
23642;SDS011;11998;55.788;37.572;2023-04-24T00:27:40;12.10;;;6.83;;
23642;SDS011;11998;55.788;37.572;2023-04-24T00:28:41;14.48;;;6.65;;
23642;SDS011;11998;55.788;37.572;2023-04-24T00:29:42;10.27;;;6.97;;
23642;SDS011;11998;55.788;37.572;2023-04-24T00:30:42;14.57;;;6.97;;
23642;SDS011;11998;55.788;37.572;2023-04-24T00:31:43;15.07;;;6.73;;
23642;SDS011;11998;55.788;37.572;2023-04-24T00:32:43;11.00;;;6.13;;
23642;SDS011;11998;55.788;37.572;2023-04-24T00:33:44;13.73;;;6.70;;
23642;SDS011;11998;55.788;37.572;2023-04-24T00:34:45;16.40;;;6.72;;
23642;SDS011;11998;55.788;37.572;2023-04-24T00:35:45;13.97;;;7.20;;
23642;SDS011;11998;55.788;37.572;2023-04-24T00:36:46;12.27;;;7.37;;
23642;SDS011;11998;55.788;37.572;2023-04-24T00:37:46;11.73;;;6.83;;
23642;SDS011;11998;55.788;37.572;2023-04-24T00:38:47;12.93;;;7.40;;
23642;SDS011;11998;55.788;37.572;2023-04-24T00:39:48;15.35;;;7.80;;
23642;SDS011;11998;55.788;37.572;2023-04-24T00:40:49;18.33;;;7.67;;
23642;SDS011;11998;55.788;37.572;2023-04-24T00:41:50;13.97;;;7.77;;
23642;SDS011;11998;55.788;37.572;2023-04-24T00:42:51;13.87;;;7.83;;
23642;SDS011;11998;55.788;37.572;2023-04-24T00:43:52;12.70;;;7.57;;
23642;SDS011;11998;55.788;37.572;2023-04-24T00:44:53;14.07;;;7.37;;
23642;SDS011;11998;55.788;37.572;2023-04-24T00:45:54;11.03;;;7.37;;
23642;SDS011;11998;55.788;37.572;2023-04-24T00:46:55;10.63;;;7.10;;
23642;SDS011;11998;55.788;37.572;2023-04-24T00:47:56;12.47;;;8.40;;
23642;SDS011;11998;55.788;37.572;2023-04-24T00:48:57;13.77;;;7.63;;
23642;SDS011;11998;55.788;37.572;2023-04-24T00:50:02;10.97;;;7.53;;
23642;SDS011;11998;55.788;37.572;2023-04-24T00:51:03;19.63;;;7.43;;
23642;SDS011;11998;55.788;37.572;2023-04-24T00:52:04;10.30;;;7.47;;
23642;SDS011;11998;55.788;37.572;2023-04-24T00:53:08;10.03;;;7.47;;
23642;SDS011;11998;55.788;37.572;2023-04-24T00:54:09;12.47;;;7.93;;
23642;SDS011;11998;55.788;37.572;2023-04-24T00:55:10;10.37;;;7.90;;
23642;SDS011;11998;55.788;37.572;2023-04-24T00:56:10;14.03;;;8.13;;
23642;SDS011;11998;55.788;37.572;2023-04-24T00:57:12;15.40;;;8.37;;
23642;SDS011;11998;55.788;37.572;2023-04-24T00:58:15;13.37;;;8.13;;
23642;SDS011;11998;55.788;37.572;2023-04-24T00:59:18;14.40;;;7.97;;
23642;SDS011;11998;55.788;37.572;2023-04-24T01:00:19;15.73;;;7.20;;
23642;SDS011;11998;55.788;37.572;2023-04-24T01:01:20;17.73;;;8.60;;
23642;SDS011;11998;55.788;37.572;2023-04-24T01:02:21;11.03;;;7.20;;
23642;SDS011;11998;55.788;37.572;2023-04-24T01:03:26;13.55;;;7.88;;
23642;SDS011;11998;55.788;37.572;2023-04-24T01:04:30;13.27;;;8.07;;
23642;SDS011;11998;55.788;37.572;2023-04-24T01:05:30;11.77;;;7.17;;
23642;SDS011;11998;55.788;37.572;2023-04-24T01:06:31;12.53;;;7.47;;
23642;SDS011;11998;55.788;37.572;2023-04-24T01:07:33;15.40;;;7.77;;
23642;SDS011;11998;55.788;37.572;2023-04-24T01:08:35;12.40;;;7.77;;
23642;SDS011;11998;55.788;37.572;2023-04-24T01:09:42;16.27;;;8.17;;
23642;SDS011;11998;55.788;37.572;2023-04-24T01:10:47;14.13;;;7.68;;
23642;SDS011;11998;55.788;37.572;2023-04-24T01:11:48;16.30;;;8.18;;
23642;SDS011;11998;55.788;37.572;2023-04-24T01:12:49;11.43;;;7.80;;
23642;SDS011;11998;55.788;37.572;2023-04-24T01:13:50;15.60;;;7.97;;
23642;SDS011;11998;55.788;37.572;2023-04-24T01:14:51;14.80;;;8.33;;
23642;SDS011;11998;55.788;37.572;2023-04-24T01:15:51;15.30;;;8.20;;
23642;SDS011;11998;55.788;37.572;2023-04-24T01:16:52;13.97;;;8.03;;
23642;SDS011;11998;55.788;37.572;2023-04-24T01:17:52;15.00;;;8.13;;
23642;SDS011;11998;55.788;37.572;2023-04-24T01:18:53;13.40;;;7.80;;
23642;SDS011;11998;55.788;37.572;2023-04-24T01:19:53;17.43;;;8.60;;
23642;SDS011;11998;55.788;37.572;2023-04-24T01:20:57;13.60;;;7.70;;
23642;SDS011;11998;55.788;37.572;2023-04-24T01:22:02;13.60;;;8.97;;
23642;SDS011;11998;55.788;37.572;2023-04-24T01:23:02;13.87;;;8.63;;
23642;SDS011;11998;55.788;37.572;2023-04-24T01:24:04;16.30;;;8.53;;
23642;SDS011;11998;55.788;37.572;2023-04-24T01:25:05;12.80;;;8.50;;
23642;SDS011;11998;55.788;37.572;2023-04-24T01:26:06;11.80;;;8.13;;
23642;SDS011;11998;55.788;37.572;2023-04-24T01:27:07;12.87;;;8.30;;
23642;SDS011;11998;55.788;37.572;2023-04-24T01:28:09;14.37;;;8.67;;
23642;SDS011;11998;55.788;37.572;2023-04-24T01:29:10;15.70;;;9.10;;
23642;SDS011;11998;55.788;37.572;2023-04-24T01:30:10;14.57;;;8.83;;
23642;SDS011;11998;55.788;37.572;2023-04-24T01:31:12;11.90;;;8.30;;
23642;SDS011;11998;55.788;37.572;2023-04-24T01:32:13;17.70;;;9.63;;
23642;SDS011;11998;55.788;37.572;2023-04-24T01:33:13;14.60;;;8.77;;
23642;SDS011;11998;55.788;37.572;2023-04-24T01:34:14;11.97;;;8.30;;
23642;SDS011;11998;55.788;37.572;2023-04-24T01:35:15;14.73;;;8.97;;
23642;SDS011;11998;55.788;37.572;2023-04-24T01:36:15;14.32;;;9.18;;
23642;SDS011;11998;55.788;37.572;2023-04-24T01:37:16;13.27;;;8.93;;
23642;SDS011;11998;55.788;37.572;2023-04-24T01:38:17;13.40;;;8.77;;
23642;SDS011;11998;55.788;37.572;2023-04-24T01:39:17;14.27;;;9.80;;
23642;SDS011;11998;55.788;37.572;2023-04-24T01:40:20;12.97;;;9.87;;
23642;SDS011;11998;55.788;37.572;2023-04-24T01:41:21;15.13;;;9.60;;
23642;SDS011;11998;55.788;37.572;2023-04-24T01:42:25;18.20;;;9.07;;
23642;SDS011;11998;55.788;37.572;2023-04-24T01:43:26;15.50;;;9.37;;
23642;SDS011;11998;55.788;37.572;2023-04-24T01:44:27;15.83;;;9.77;;
23642;SDS011;11998;55.788;37.572;2023-04-24T01:45:28;13.47;;;9.37;;
23642;SDS011;11998;55.788;37.572;2023-04-24T01:46:28;14.02;;;9.48;;
23642;SDS011;11998;55.788;37.572;2023-04-24T01:47:30;14.97;;;9.47;;
23642;SDS011;11998;55.788;37.572;2023-04-24T01:48:33;15.50;;;9.33;;
23642;SDS011;11998;55.788;37.572;2023-04-24T01:49:34;15.73;;;9.93;;
23642;SDS011;11998;55.788;37.572;2023-04-24T01:50:34;11.30;;;9.53;;
23642;SDS011;11998;55.788;37.572;2023-04-24T01:51:35;12.33;;;10.00;;
23642;SDS011;11998;55.788;37.572;2023-04-24T01:52:35;16.30;;;10.03;;
23642;SDS011;11998;55.788;37.572;2023-04-24T01:53:36;11.97;;;9.10;;
23642;SDS011;11998;55.788;37.572;2023-04-24T01:54:37;12.47;;;9.33;;
23642;SDS011;11998;55.788;37.572;2023-04-24T01:55:37;18.87;;;10.43;;
23642;SDS011;11998;55.788;37.572;2023-04-24T01:56:42;16.20;;;9.90;;
23642;SDS011;11998;55.788;37.572;2023-04-24T01:57:43;13.83;;;9.63;;
23642;SDS011;11998;55.788;37.572;2023-04-24T01:58:43;13.20;;;9.43;;
23642;SDS011;11998;55.788;37.572;2023-04-24T01:59:44;11.80;;;9.80;;
23642;SDS011;11998;55.788;37.572;2023-04-24T02:00:45;18.77;;;10.53;;
23642;SDS011;11998;55.788;37.572;2023-04-24T02:01:45;15.37;;;10.17;;
23642;SDS011;11998;55.788;37.572;2023-04-24T02:02:46;15.87;;;10.00;;
23642;SDS011;11998;55.788;37.572;2023-04-24T02:03:47;14.60;;;10.50;;
23642;SDS011;11998;55.788;37.572;2023-04-24T02:04:47;16.53;;;10.60;;
23642;SDS011;11998;55.788;37.572;2023-04-24T02:05:48;14.43;;;9.73;;
23642;SDS011;11998;55.788;37.572;2023-04-24T02:06:48;13.80;;;10.50;;
23642;SDS011;11998;55.788;37.572;2023-04-24T02:07:49;13.63;;;9.95;;
23642;SDS011;11998;55.788;37.572;2023-04-24T02:08:49;18.47;;;10.57;;
23642;SDS011;11998;55.788;37.572;2023-04-24T02:09:51;16.13;;;10.17;;
23642;SDS011;11998;55.788;37.572;2023-04-24T02:10:51;15.67;;;10.80;;
23642;SDS011;11998;55.788;37.572;2023-04-24T02:11:52;12.97;;;9.73;;
23642;SDS011;11998;55.788;37.572;2023-04-24T02:12:52;15.27;;;9.63;;
23642;SDS011;11998;55.788;37.572;2023-04-24T02:13:53;13.80;;;9.90;;
23642;SDS011;11998;55.788;37.572;2023-04-24T02:14:53;12.33;;;10.27;;
23642;SDS011;11998;55.788;37.572;2023-04-24T02:15:54;14.93;;;9.67;;
23642;SDS011;11998;55.788;37.572;2023-04-24T02:16:55;15.53;;;10.07;;
23642;SDS011;11998;55.788;37.572;2023-04-24T02:17:55;15.25;;;10.00;;
23642;SDS011;11998;55.788;37.572;2023-04-24T02:18:56;13.63;;;9.73;;
23642;SDS011;11998;55.788;37.572;2023-04-24T02:19:56;16.87;;;10.47;;
23642;SDS011;11998;55.788;37.572;2023-04-24T02:20:57;14.93;;;9.60;;
23642;SDS011;11998;55.788;37.572;2023-04-24T02:21:57;15.83;;;10.27;;
23642;SDS011;11998;55.788;37.572;2023-04-24T02:22:58;13.80;;;10.30;;
23642;SDS011;11998;55.788;37.572;2023-04-24T02:23:58;16.80;;;10.90;;
23642;SDS011;11998;55.788;37.572;2023-04-24T02:24:59;22.87;;;10.83;;
23642;SDS011;11998;55.788;37.572;2023-04-24T02:26:00;13.27;;;10.87;;
23642;SDS011;11998;55.788;37.572;2023-04-24T02:27:00;25.17;;;11.33;;
23642;SDS011;11998;55.788;37.572;2023-04-24T02:28:02;16.00;;;10.53;;
23642;SDS011;11998;55.788;37.572;2023-04-24T02:29:03;18.40;;;10.60;;
23642;SDS011;11998;55.788;37.572;2023-04-24T02:30:04;17.87;;;10.60;;
23642;SDS011;11998;55.788;37.572;2023-04-24T02:31:06;13.97;;;10.53;;
23642;SDS011;11998;55.788;37.572;2023-04-24T02:32:07;18.47;;;11.07;;
23642;SDS011;11998;55.788;37.572;2023-04-24T02:33:11;13.93;;;11.33;;
23642;SDS011;11998;55.788;37.572;2023-04-24T02:34:12;18.83;;;10.83;;
23642;SDS011;11998;55.788;37.572;2023-04-24T02:35:13;16.47;;;10.90;;
23642;SDS011;11998;55.788;37.572;2023-04-24T02:36:13;16.53;;;10.23;;
23642;SDS011;11998;55.788;37.572;2023-04-24T02:37:14;15.53;;;10.23;;
23642;SDS011;11998;55.788;37.572;2023-04-24T02:38:14;17.57;;;11.20;;
23642;SDS011;11998;55.788;37.572;2023-04-24T02:39:15;15.53;;;10.37;;
23642;SDS011;11998;55.788;37.572;2023-04-24T02:40:19;15.93;;;10.50;;
23642;SDS011;11998;55.788;37.572;2023-04-24T02:41:19;17.90;;;11.73;;
23642;SDS011;11998;55.788;37.572;2023-04-24T02:42:20;50.50;;;13.37;;
23642;SDS011;11998;55.788;37.572;2023-04-24T02:43:21;18.37;;;11.67;;
23642;SDS011;11998;55.788;37.572;2023-04-24T02:44:21;18.27;;;11.77;;
23642;SDS011;11998;55.788;37.572;2023-04-24T02:45:22;19.27;;;11.80;;
23642;SDS011;11998;55.788;37.572;2023-04-24T02:46:23;16.27;;;11.50;;
23642;SDS011;11998;55.788;37.572;2023-04-24T02:47:24;17.07;;;10.73;;
23642;SDS011;11998;55.788;37.572;2023-04-24T02:48:24;19.17;;;12.67;;
23642;SDS011;11998;55.788;37.572;2023-04-24T02:49:26;19.67;;;11.90;;
23642;SDS011;11998;55.788;37.572;2023-04-24T02:50:27;18.70;;;11.53;;
23642;SDS011;11998;55.788;37.572;2023-04-24T02:51:27;17.80;;;11.00;;
23642;SDS011;11998;55.788;37.572;2023-04-24T02:52:28;16.50;;;10.93;;
23642;SDS011;11998;55.788;37.572;2023-04-24T02:53:28;15.13;;;10.53;;
23642;SDS011;11998;55.788;37.572;2023-04-24T02:54:30;17.83;;;11.40;;
23642;SDS011;11998;55.788;37.572;2023-04-24T02:55:31;15.43;;;11.23;;
23642;SDS011;11998;55.788;37.572;2023-04-24T02:56:31;19.43;;;11.60;;
23642;SDS011;11998;55.788;37.572;2023-04-24T02:57:32;21.53;;;11.00;;
23642;SDS011;11998;55.788;37.572;2023-04-24T02:58:35;21.80;;;11.83;;
23642;SDS011;11998;55.788;37.572;2023-04-24T02:59:36;16.53;;;11.50;;
23642;SDS011;11998;55.788;37.572;2023-04-24T03:00:36;19.00;;;12.83;;
23642;SDS011;11998;55.788;37.572;2023-04-24T03:01:37;19.83;;;12.40;;
23642;SDS011;11998;55.788;37.572;2023-04-24T03:02:37;21.37;;;13.07;;
23642;SDS011;11998;55.788;37.572;2023-04-24T03:03:38;15.67;;;10.77;;
23642;SDS011;11998;55.788;37.572;2023-04-24T03:04:41;19.50;;;11.20;;
23642;SDS011;11998;55.788;37.572;2023-04-24T03:05:43;21.70;;;12.07;;
23642;SDS011;11998;55.788;37.572;2023-04-24T03:06:43;17.40;;;11.17;;
23642;SDS011;11998;55.788;37.572;2023-04-24T03:07:44;16.90;;;11.53;;
23642;SDS011;11998;55.788;37.572;2023-04-24T03:08:45;19.73;;;10.20;;
23642;SDS011;11998;55.788;37.572;2023-04-24T03:09:46;17.07;;;10.97;;
23642;SDS011;11998;55.788;37.572;2023-04-24T03:10:47;17.20;;;11.57;;
23642;SDS011;11998;55.788;37.572;2023-04-24T03:11:48;17.00;;;11.00;;
23642;SDS011;11998;55.788;37.572;2023-04-24T03:12:49;14.93;;;10.40;;
23642;SDS011;11998;55.788;37.572;2023-04-24T03:13:50;15.73;;;10.80;;
23642;SDS011;11998;55.788;37.572;2023-04-24T03:14:50;16.58;;;10.75;;
23642;SDS011;11998;55.788;37.572;2023-04-24T03:15:51;18.02;;;10.60;;
23642;SDS011;11998;55.788;37.572;2023-04-24T03:16:52;18.20;;;10.00;;
23642;SDS011;11998;55.788;37.572;2023-04-24T03:17:53;18.80;;;11.18;;
23642;SDS011;11998;55.788;37.572;2023-04-24T03:18:54;17.83;;;11.63;;
23642;SDS011;11998;55.788;37.572;2023-04-24T03:19:54;11.90;;;10.30;;
23642;SDS011;11998;55.788;37.572;2023-04-24T03:20:55;19.13;;;10.57;;
23642;SDS011;11998;55.788;37.572;2023-04-24T03:21:56;15.93;;;11.05;;
23642;SDS011;11998;55.788;37.572;2023-04-24T03:22:56;17.00;;;10.73;;
23642;SDS011;11998;55.788;37.572;2023-04-24T03:23:57;19.50;;;11.18;;
23642;SDS011;11998;55.788;37.572;2023-04-24T03:24:57;14.18;;;10.43;;
23642;SDS011;11998;55.788;37.572;2023-04-24T03:25:58;15.93;;;10.20;;
23642;SDS011;11998;55.788;37.572;2023-04-24T03:26:58;14.77;;;10.27;;
23642;SDS011;11998;55.788;37.572;2023-04-24T03:28:00;14.02;;;10.45;;
23642;SDS011;11998;55.788;37.572;2023-04-24T03:29:00;14.47;;;10.63;;
23642;SDS011;11998;55.788;37.572;2023-04-24T03:30:01;14.05;;;10.32;;
23642;SDS011;11998;55.788;37.572;2023-04-24T03:31:02;13.75;;;10.02;;
23642;SDS011;11998;55.788;37.572;2023-04-24T03:32:03;13.80;;;10.00;;
23642;SDS011;11998;55.788;37.572;2023-04-24T03:33:04;15.15;;;10.50;;
23642;SDS011;11998;55.788;37.572;2023-04-24T03:34:04;13.65;;;10.18;;
23642;SDS011;11998;55.788;37.572;2023-04-24T03:35:06;14.13;;;10.68;;
23642;SDS011;11998;55.788;37.572;2023-04-24T03:36:08;11.80;;;10.10;;
23642;SDS011;11998;55.788;37.572;2023-04-24T03:37:08;14.98;;;11.02;;
23642;SDS011;11998;55.788;37.572;2023-04-24T03:38:09;15.57;;;11.55;;
23642;SDS011;11998;55.788;37.572;2023-04-24T03:39:10;18.92;;;10.60;;
23642;SDS011;11998;55.788;37.572;2023-04-24T03:40:11;14.32;;;10.65;;
23642;SDS011;11998;55.788;37.572;2023-04-24T03:41:11;17.85;;;10.73;;
23642;SDS011;11998;55.788;37.572;2023-04-24T03:42:12;16.45;;;10.55;;
23642;SDS011;11998;55.788;37.572;2023-04-24T03:43:12;16.50;;;10.30;;
23642;SDS011;11998;55.788;37.572;2023-04-24T03:44:13;14.55;;;10.77;;
23642;SDS011;11998;55.788;37.572;2023-04-24T03:45:13;17.63;;;9.75;;
23642;SDS011;11998;55.788;37.572;2023-04-24T03:46:14;12.82;;;10.32;;
23642;SDS011;11998;55.788;37.572;2023-04-24T03:47:15;16.17;;;10.82;;
23642;SDS011;11998;55.788;37.572;2023-04-24T03:48:15;15.48;;;10.15;;
23642;SDS011;11998;55.788;37.572;2023-04-24T03:49:16;17.90;;;11.63;;
23642;SDS011;11998;55.788;37.572;2023-04-24T03:50:17;15.25;;;10.23;;
23642;SDS011;11998;55.788;37.572;2023-04-24T03:51:17;14.32;;;10.38;;
23642;SDS011;11998;55.788;37.572;2023-04-24T03:52:18;13.25;;;10.23;;
23642;SDS011;11998;55.788;37.572;2023-04-24T03:53:18;19.52;;;10.45;;
23642;SDS011;11998;55.788;37.572;2023-04-24T03:54:19;19.35;;;9.80;;
23642;SDS011;11998;55.788;37.572;2023-04-24T03:55:20;12.82;;;9.45;;
23642;SDS011;11998;55.788;37.572;2023-04-24T03:56:20;11.68;;;9.50;;
23642;SDS011;11998;55.788;37.572;2023-04-24T03:57:21;13.75;;;9.55;;
23642;SDS011;11998;55.788;37.572;2023-04-24T03:58:22;14.20;;;10.35;;
23642;SDS011;11998;55.788;37.572;2023-04-24T03:59:22;16.55;;;9.65;;
23642;SDS011;11998;55.788;37.572;2023-04-24T04:00:23;19.45;;;10.50;;
23642;SDS011;11998;55.788;37.572;2023-04-24T04:01:23;15.82;;;9.45;;
23642;SDS011;11998;55.788;37.572;2023-04-24T04:02:24;15.52;;;9.95;;
23642;SDS011;11998;55.788;37.572;2023-04-24T04:03:25;12.38;;;9.65;;
23642;SDS011;11998;55.788;37.572;2023-04-24T04:04:25;17.27;;;11.68;;
23642;SDS011;11998;55.788;37.572;2023-04-24T04:05:25;18.98;;;10.60;;
23642;SDS011;11998;55.788;37.572;2023-04-24T04:06:26;14.65;;;10.43;;
23642;SDS011;11998;55.788;37.572;2023-04-24T04:07:27;14.48;;;9.60;;
23642;SDS011;11998;55.788;37.572;2023-04-24T04:08:27;17.10;;;10.25;;
23642;SDS011;11998;55.788;37.572;2023-04-24T04:09:28;16.83;;;10.38;;
23642;SDS011;11998;55.788;37.572;2023-04-24T04:10:29;14.43;;;9.20;;
23642;SDS011;11998;55.788;37.572;2023-04-24T04:11:29;14.23;;;10.48;;
23642;SDS011;11998;55.788;37.572;2023-04-24T04:12:30;16.15;;;9.90;;
23642;SDS011;11998;55.788;37.572;2023-04-24T04:13:31;16.90;;;10.48;;
23642;SDS011;11998;55.788;37.572;2023-04-24T04:14:31;15.88;;;9.63;;
23642;SDS011;11998;55.788;37.572;2023-04-24T04:15:32;20.17;;;10.82;;
23642;SDS011;11998;55.788;37.572;2023-04-24T04:16:32;18.30;;;12.00;;
23642;SDS011;11998;55.788;37.572;2023-04-24T04:17:33;14.60;;;8.63;;
23642;SDS011;11998;55.788;37.572;2023-04-24T04:18:33;19.10;;;11.07;;
23642;SDS011;11998;55.788;37.572;2023-04-24T04:19:34;14.27;;;10.10;;
23642;SDS011;11998;55.788;37.572;2023-04-24T04:20:35;13.38;;;9.15;;
23642;SDS011;11998;55.788;37.572;2023-04-24T04:21:35;17.65;;;10.25;;
23642;SDS011;11998;55.788;37.572;2023-04-24T04:22:36;15.40;;;9.50;;
23642;SDS011;11998;55.788;37.572;2023-04-24T04:23:37;13.23;;;9.88;;
23642;SDS011;11998;55.788;37.572;2023-04-24T04:24:37;11.68;;;9.00;;
23642;SDS011;11998;55.788;37.572;2023-04-24T04:25:40;11.90;;;9.75;;
23642;SDS011;11998;55.788;37.572;2023-04-24T04:26:41;14.95;;;9.57;;
23642;SDS011;11998;55.788;37.572;2023-04-24T04:27:46;13.55;;;9.80;;
23642;SDS011;11998;55.788;37.572;2023-04-24T04:28:48;13.98;;;9.20;;
23642;SDS011;11998;55.788;37.572;2023-04-24T04:29:49;19.27;;;9.95;;
23642;SDS011;11998;55.788;37.572;2023-04-24T04:30:50;17.00;;;9.45;;
23642;SDS011;11998;55.788;37.572;2023-04-24T04:31:53;15.80;;;9.57;;
23642;SDS011;11998;55.788;37.572;2023-04-24T04:32:55;11.82;;;8.30;;
23642;SDS011;11998;55.788;37.572;2023-04-24T04:33:55;12.82;;;9.00;;
23642;SDS011;11998;55.788;37.572;2023-04-24T04:34:56;17.73;;;9.27;;
23642;SDS011;11998;55.788;37.572;2023-04-24T04:35:57;18.13;;;9.52;;
23642;SDS011;11998;55.788;37.572;2023-04-24T04:36:57;13.75;;;9.18;;
23642;SDS011;11998;55.788;37.572;2023-04-24T04:38:01;13.45;;;9.50;;
23642;SDS011;11998;55.788;37.572;2023-04-24T04:39:02;19.77;;;9.30;;
23642;SDS011;11998;55.788;37.572;2023-04-24T04:40:04;15.40;;;9.38;;
23642;SDS011;11998;55.788;37.572;2023-04-24T04:41:07;14.88;;;10.23;;
23642;SDS011;11998;55.788;37.572;2023-04-24T04:42:08;16.60;;;10.18;;
23642;SDS011;11998;55.788;37.572;2023-04-24T04:43:08;14.57;;;9.77;;
23642;SDS011;11998;55.788;37.572;2023-04-24T04:44:10;18.83;;;9.93;;
23642;SDS011;11998;55.788;37.572;2023-04-24T04:45:11;12.18;;;8.18;;
23642;SDS011;11998;55.788;37.572;2023-04-24T04:46:11;10.20;;;7.63;;
23642;SDS011;11998;55.788;37.572;2023-04-24T04:47:12;13.05;;;9.00;;
23642;SDS011;11998;55.788;37.572;2023-04-24T04:48:13;14.85;;;8.80;;
23642;SDS011;11998;55.788;37.572;2023-04-24T04:49:14;14.27;;;8.82;;
23642;SDS011;11998;55.788;37.572;2023-04-24T04:50:16;13.88;;;10.10;;
23642;SDS011;11998;55.788;37.572;2023-04-24T04:51:19;12.60;;;9.35;;
23642;SDS011;11998;55.788;37.572;2023-04-24T04:52:20;12.65;;;8.38;;
23642;SDS011;11998;55.788;37.572;2023-04-24T04:53:25;12.57;;;9.00;;
23642;SDS011;11998;55.788;37.572;2023-04-24T04:54:26;12.27;;;8.63;;
23642;SDS011;11998;55.788;37.572;2023-04-24T04:55:26;12.00;;;8.68;;
23642;SDS011;11998;55.788;37.572;2023-04-24T04:56:27;13.70;;;9.27;;
23642;SDS011;11998;55.788;37.572;2023-04-24T04:57:27;11.35;;;8.25;;
23642;SDS011;11998;55.788;37.572;2023-04-24T04:58:28;10.18;;;8.30;;
23642;SDS011;11998;55.788;37.572;2023-04-24T04:59:28;10.32;;;8.13;;
23642;SDS011;11998;55.788;37.572;2023-04-24T05:00:29;11.75;;;7.88;;
23642;SDS011;11998;55.788;37.572;2023-04-24T05:01:35;14.07;;;8.65;;
23642;SDS011;11998;55.788;37.572;2023-04-24T05:02:36;13.10;;;9.30;;
23642;SDS011;11998;55.788;37.572;2023-04-24T05:03:37;11.05;;;8.25;;
23642;SDS011;11998;55.788;37.572;2023-04-24T05:04:37;12.48;;;9.05;;
23642;SDS011;11998;55.788;37.572;2023-04-24T05:05:38;10.43;;;8.80;;
23642;SDS011;11998;55.788;37.572;2023-04-24T05:06:40;15.32;;;8.43;;
23642;SDS011;11998;55.788;37.572;2023-04-24T05:07:41;10.73;;;8.00;;
23642;SDS011;11998;55.788;37.572;2023-04-24T05:08:41;11.95;;;8.55;;
23642;SDS011;11998;55.788;37.572;2023-04-24T05:09:48;14.70;;;8.02;;
23642;SDS011;11998;55.788;37.572;2023-04-24T05:10:48;13.00;;;8.02;;
23642;SDS011;11998;55.788;37.572;2023-04-24T05:11:49;13.35;;;8.10;;
23642;SDS011;11998;55.788;37.572;2023-04-24T05:12:49;12.00;;;9.13;;
23642;SDS011;11998;55.788;37.572;2023-04-24T05:13:50;14.65;;;8.25;;
23642;SDS011;11998;55.788;37.572;2023-04-24T05:14:50;13.70;;;7.93;;
23642;SDS011;11998;55.788;37.572;2023-04-24T05:15:51;12.32;;;8.15;;
23642;SDS011;11998;55.788;37.572;2023-04-24T05:16:51;12.57;;;8.32;;
23642;SDS011;11998;55.788;37.572;2023-04-24T05:17:52;11.40;;;8.10;;
23642;SDS011;11998;55.788;37.572;2023-04-24T05:18:52;13.77;;;8.70;;
23642;SDS011;11998;55.788;37.572;2023-04-24T05:19:53;16.10;;;8.55;;
23642;SDS011;11998;55.788;37.572;2023-04-24T05:20:54;16.77;;;8.50;;
23642;SDS011;11998;55.788;37.572;2023-04-24T05:21:54;9.80;;;7.63;;
23642;SDS011;11998;55.788;37.572;2023-04-24T05:22:55;12.40;;;7.32;;
23642;SDS011;11998;55.788;37.572;2023-04-24T05:23:56;15.18;;;7.68;;
23642;SDS011;11998;55.788;37.572;2023-04-24T05:24:56;15.40;;;7.88;;
23642;SDS011;11998;55.788;37.572;2023-04-24T05:25:57;13.80;;;7.90;;
23642;SDS011;11998;55.788;37.572;2023-04-24T05:26:58;14.00;;;8.25;;
23642;SDS011;11998;55.788;37.572;2023-04-24T05:27:59;10.57;;;7.53;;
23642;SDS011;11998;55.788;37.572;2023-04-24T05:28:59;9.15;;;8.07;;
23642;SDS011;11998;55.788;37.572;2023-04-24T05:30:00;15.77;;;7.90;;
23642;SDS011;11998;55.788;37.572;2023-04-24T05:31:00;12.30;;;7.55;;
23642;SDS011;11998;55.788;37.572;2023-04-24T05:32:02;13.75;;;7.55;;
23642;SDS011;11998;55.788;37.572;2023-04-24T05:33:02;15.05;;;7.55;;
23642;SDS011;11998;55.788;37.572;2023-04-24T05:34:06;9.90;;;7.57;;
23642;SDS011;11998;55.788;37.572;2023-04-24T05:35:07;13.00;;;7.70;;
23642;SDS011;11998;55.788;37.572;2023-04-24T05:36:07;11.25;;;7.68;;
23642;SDS011;11998;55.788;37.572;2023-04-24T05:37:08;9.43;;;6.95;;
23642;SDS011;11998;55.788;37.572;2023-04-24T05:38:10;11.32;;;7.60;;
23642;SDS011;11998;55.788;37.572;2023-04-24T05:39:10;9.70;;;7.20;;
23642;SDS011;11998;55.788;37.572;2023-04-24T05:40:11;16.83;;;7.63;;
23642;SDS011;11998;55.788;37.572;2023-04-24T05:41:11;12.95;;;7.15;;
23642;SDS011;11998;55.788;37.572;2023-04-24T05:42:12;12.85;;;6.82;;
23642;SDS011;11998;55.788;37.572;2023-04-24T05:43:12;12.60;;;6.65;;
23642;SDS011;11998;55.788;37.572;2023-04-24T05:44:13;12.40;;;6.97;;
23642;SDS011;11998;55.788;37.572;2023-04-24T05:45:14;14.18;;;7.05;;
23642;SDS011;11998;55.788;37.572;2023-04-24T05:46:16;9.45;;;6.82;;
23642;SDS011;11998;55.788;37.572;2023-04-24T05:47:17;11.93;;;7.00;;
23642;SDS011;11998;55.788;37.572;2023-04-24T05:48:18;10.20;;;6.78;;
23642;SDS011;11998;55.788;37.572;2023-04-24T05:49:18;10.20;;;6.75;;
23642;SDS011;11998;55.788;37.572;2023-04-24T05:50:19;13.32;;;7.35;;
23642;SDS011;11998;55.788;37.572;2023-04-24T05:51:20;8.63;;;6.13;;
23642;SDS011;11998;55.788;37.572;2023-04-24T05:52:20;9.88;;;7.03;;
23642;SDS011;11998;55.788;37.572;2023-04-24T05:53:21;12.48;;;6.90;;
23642;SDS011;11998;55.788;37.572;2023-04-24T05:54:22;6.63;;;6.03;;
23642;SDS011;11998;55.788;37.572;2023-04-24T05:55:22;8.13;;;6.20;;